Shin Mei Maru — JG5617 — position and weather

sailwx.info

Track history (hours):
 
Tides and Currents Weather Stations Pressure Air Temp Water Temp Dewpoint Dewpoint Depression Visibility Wind Speed Wind Dir Waves Ship Positions

Shin Mei Maru

Last reported at 2015-May-06 11:30 UTC. Time now 2015-May-06 12:29 UTC.
Position N 34°50' E 139°51'.

Length 160 m; draft 6.8 m.

Type: Cargo ship. MMSI: 431100922.

Date/timePositionNaut miles runAvg speedWind from/ knotsBaromVisibWave heightAir tempDewpointWater temp
2015-May-06 11:30N 34°50' E 139°51'1415.3
2015-May-06 10:33N 35°03' E 139°43'1514.8
2015-May-06 09:33N 35°17' E 139°45'1313.2
2015-May-06 08:33N 35°29' E 139°51'9 9.4
2015-May-06 07:33N 35°38' E 139°46'0 0.1
2015-May-06 06:30N 35°38' E 139°46'0 0.0
2015-May-06 05:21N 35°38' E 139°46'1 1.7
2015-May-06 04:33N 35°37' E 139°46'1312.6
2015-May-06 03:33N 35°24' E 139°46'1111.4
2015-May-06 02:33N 35°13' E 139°47'2217.5
2015-May-06 01:18N 34°56' E 139°30'5617.8
2015-May-05 22:11N 34°27' E 138°32'18017.0
2015-May-05 11:33N 33°54' E 134°58'1818.3
2015-May-05 10:33N 34°13' E 134°58'1918.6
2015-May-05 09:33N 34°29' E 135°09'1515.1
2015-May-05 08:33N 34°37' E 135°25'0 0.0
2015-May-05 06:04N 34°37' E 135°25'0 0.0
2015-May-05 05:28N 34°37' E 135°25'0 0.0
2015-May-05 03:32N 34°37' E 135°25'9 8.7
2015-May-05 02:33N 34°32' E 135°16'1817.8
2015-May-05 01:33N 34°20' E 135°01'1818.1
2015-May-05 00:34N 34°02' E 134°59'23515.7
2015-May-04 09:33N 35°01' E 139°35'1716.6
2015-May-04 08:33N 35°15' E 139°46'1212.2
2015-May-04 07:34N 35°27' E 139°47'1110.5
2015-May-04 06:33N 35°38' E 139°46'0 0.0
2015-May-04 05:28N 35°38' E 139°46'0 0.0
2015-May-04 04:28N 35°38' E 139°46'0 0.0
2015-May-04 03:16N 35°38' E 139°46'0 0.0
2015-May-04 02:25N 35°38' E 139°46'0 0.0
2015-May-04 01:25N 35°38' E 139°46'0 0.0
2015-May-04 00:31N 35°38' E 139°46'0 0.0
2015-May-03 23:31N 35°38' E 139°46'0 0.0
2015-May-03 22:33N 35°38' E 139°46'6 5.7
2015-May-03 21:33N 35°33' E 139°50'1312.9
2015-May-03 20:34N 35°21' E 139°45'1312.9
2015-May-03 19:33N 35°09' E 139°46'1515.4
2015-May-03 18:33N 34°53' E 139°47'1414.3
2015-May-03 17:33N 34°55' E 140°05'1414.1
2015-May-03 16:33N 35°00' E 140°20'1616.4
2015-May-03 15:33N 35°12' E 140°34'1716.9
2015-May-03 14:33N 35°26' E 140°46'1716.9
2015-May-03 13:32N 35°40' E 140°58'1917.8
2015-May-03 12:28N 35°59' E 141°03'  
2015-Apr-29 19:23N 36°20' E 141°08'1618.5
2015-Apr-29 18:32N 36°04' E 141°04'2118.3
2015-Apr-29 17:22N 35°43' E 141°01'1518.6
2015-Apr-29 16:33N 35°30' E 140°52'2119.6
2015-Apr-29 15:28N 35°13' E 140°35'1718.6
2015-Apr-29 14:33N 35°01' E 140°21'1818.0
2015-Apr-29 13:33N 34°52' E 140°02'1515.1
2015-Apr-29 12:33N 34°55' E 139°44'1817.8
2015-Apr-29 11:33N 35°13' E 139°46'1312.7
2015-Apr-29 10:34N 35°26' E 139°45'1212.1
2015-Apr-29 09:33N 35°38' E 139°46'0 0.1
2015-Apr-29 08:33N 35°38' E 139°46'0 0.0
2015-Apr-29 07:10N 35°38' E 139°46'0 0.0
2015-Apr-29 06:31N 35°38' E 139°46'0 0.2
2015-Apr-29 05:33N 35°38' E 139°46'1110.7
2015-Apr-29 04:33N 35°28' E 139°50'1212.2
2015-Apr-29 03:33N 35°16' E 139°47'1716.8
2015-Apr-29 02:33N 35°01' E 139°36'6519.3
2015-Apr-28 23:12N 34°27' E 138°30'17916.7
2015-Apr-28 12:31N 33°58' E 134°56'2020.2
2015-Apr-28 11:32N 34°18' E 134°58'1919.3
2015-Apr-28 10:33N 34°33' E 135°13'1110.5
2015-Apr-28 09:33N 34°37' E 135°25'0 0.0
2015-Apr-28 08:23N 34°37' E 135°25'0 0.0
2015-Apr-28 04:23N 34°37' E 135°25'0 0.0
2015-Apr-28 03:23N 34°37' E 135°25'0 0.0
2015-Apr-28 02:29N 34°37' E 135°25'0 0.0
2015-Apr-28 01:24N 34°37' E 135°25'6 7.3
2015-Apr-28 00:33N 34°34' E 135°18'1817.8
2015-Apr-27 23:33N 34°21' E 135°03'1716.7
2015-Apr-27 22:33N 34°05' E 134°59'23014.4
2015-Apr-27 06:33N 34°58' E 139°30'1818.0
2015-Apr-27 05:33N 35°10' E 139°46'1313.2
2015-Apr-27 04:33N 35°23' E 139°42'1312.9
2015-Apr-27 03:33N 35°35' E 139°48'3 3.3
2015-Apr-27 02:33N 35°38' E 139°46'0 0.0
2015-Apr-27 01:33N 35°38' E 139°46'0 0.0
2015-Apr-27 00:27N 35°38' E 139°46'0 0.0
2015-Apr-26 23:33N 35°38' E 139°46'0 0.0
2015-Apr-26 22:33N 35°38' E 139°46'2 2.5
2015-Apr-26 21:33N 35°36' E 139°47'1111.0
2015-Apr-26 20:34N 35°25' E 139°47'1111.0
2015-Apr-26 19:33N 35°14' E 139°47'1818.0
2015-Apr-26 18:33N 34°56' E 139°42'1515.4
2015-Apr-26 17:33N 34°54' E 140°01'1918.6
2015-Apr-26 16:31N 35°04' E 140°21'1918.2
2015-Apr-26 15:30N 35°15' E 140°38'1818.0
2015-Apr-26 14:29N 35°29' E 140°53'1819.3
2015-Apr-26 13:33N 35°46' E 141°02'2020.4
2015-Apr-26 12:33N 36°06' E 141°05'2120.0
2015-Apr-26 11:30N 36°27' E 141°09'  
Track history (hours):
 
Tides and Currents Weather Stations Pressure Air Temp Water Temp Dewpoint Dewpoint Depression Visibility Wind Speed Wind Dir Waves Ship Positions

Shin Mei Maru

Last reported at 2015-May-06 11:30 UTC. Time now 2015-May-06 12:29 UTC.
Position N 34°50' E 139°51'.

Length 160 m; draft 6.8 m.

Type: Cargo ship. MMSI: 431100922.

Date/timePositionNaut miles runAvg speedWind from/ knotsBaromVisibWave heightAir tempDewpointWater temp
2015-May-06 11:30N 34°50' E 139°51'1415.3
2015-May-06 10:33N 35°03' E 139°43'1514.8
2015-May-06 09:33N 35°17' E 139°45'1313.2
2015-May-06 08:33N 35°29' E 139°51'9 9.4
2015-May-06 07:33N 35°38' E 139°46'0 0.1
2015-May-06 06:30N 35°38' E 139°46'0 0.0
2015-May-06 05:21N 35°38' E 139°46'1 1.7
2015-May-06 04:33N 35°37' E 139°46'1312.6
2015-May-06 03:33N 35°24' E 139°46'1111.4
2015-May-06 02:33N 35°13' E 139°47'2217.5
2015-May-06 01:18N 34°56' E 139°30'5617.8
2015-May-05 22:11N 34°27' E 138°32'18017.0
2015-May-05 11:33N 33°54' E 134°58'1818.3
2015-May-05 10:33N 34°13' E 134°58'1918.6
2015-May-05 09:33N 34°29' E 135°09'1515.1
2015-May-05 08:33N 34°37' E 135°25'0 0.0
2015-May-05 06:04N 34°37' E 135°25'0 0.0
2015-May-05 05:28N 34°37' E 135°25'0 0.0
2015-May-05 03:32N 34°37' E 135°25'9 8.7
2015-May-05 02:33N 34°32' E 135°16'1817.8
2015-May-05 01:33N 34°20' E 135°01'1818.1
2015-May-05 00:34N 34°02' E 134°59'23515.7
2015-May-04 09:33N 35°01' E 139°35'1716.6
2015-May-04 08:33N 35°15' E 139°46'1212.2
2015-May-04 07:34N 35°27' E 139°47'1110.5
2015-May-04 06:33N 35°38' E 139°46'0 0.0
2015-May-04 05:28N 35°38' E 139°46'0 0.0
2015-May-04 04:28N 35°38' E 139°46'0 0.0
2015-May-04 03:16N 35°38' E 139°46'0 0.0
2015-May-04 02:25N 35°38' E 139°46'0 0.0
2015-May-04 01:25N 35°38' E 139°46'0 0.0
2015-May-04 00:31N 35°38' E 139°46'0 0.0
2015-May-03 23:31N 35°38' E 139°46'0 0.0
2015-May-03 22:33N 35°38' E 139°46'6 5.7
2015-May-03 21:33N 35°33' E 139°50'1312.9
2015-May-03 20:34N 35°21' E 139°45'1312.9
2015-May-03 19:33N 35°09' E 139°46'1515.4
2015-May-03 18:33N 34°53' E 139°47'1414.3
2015-May-03 17:33N 34°55' E 140°05'1414.1
2015-May-03 16:33N 35°00' E 140°20'1616.4
2015-May-03 15:33N 35°12' E 140°34'1716.9
2015-May-03 14:33N 35°26' E 140°46'1716.9
2015-May-03 13:32N 35°40' E 140°58'1917.8
2015-May-03 12:28N 35°59' E 141°03'  
2015-Apr-29 19:23N 36°20' E 141°08'1618.5
2015-Apr-29 18:32N 36°04' E 141°04'2118.3
2015-Apr-29 17:22N 35°43' E 141°01'1518.6
2015-Apr-29 16:33N 35°30' E 140°52'2119.6
2015-Apr-29 15:28N 35°13' E 140°35'1718.6
2015-Apr-29 14:33N 35°01' E 140°21'1818.0
2015-Apr-29 13:33N 34°52' E 140°02'1515.1
2015-Apr-29 12:33N 34°55' E 139°44'1817.8
2015-Apr-29 11:33N 35°13' E 139°46'1312.7
2015-Apr-29 10:34N 35°26' E 139°45'1212.1
2015-Apr-29 09:33N 35°38' E 139°46'0 0.1
2015-Apr-29 08:33N 35°38' E 139°46'0 0.0
2015-Apr-29 07:10N 35°38' E 139°46'0 0.0
2015-Apr-29 06:31N 35°38' E 139°46'0 0.2
2015-Apr-29 05:33N 35°38' E 139°46'1110.7
2015-Apr-29 04:33N 35°28' E 139°50'1212.2
2015-Apr-29 03:33N 35°16' E 139°47'1716.8
2015-Apr-29 02:33N 35°01' E 139°36'6519.3
2015-Apr-28 23:12N 34°27' E 138°30'17916.7
2015-Apr-28 12:31N 33°58' E 134°56'2020.2
2015-Apr-28 11:32N 34°18' E 134°58'1919.3
2015-Apr-28 10:33N 34°33' E 135°13'1110.5
2015-Apr-28 09:33N 34°37' E 135°25'0 0.0
2015-Apr-28 08:23N 34°37' E 135°25'0 0.0
2015-Apr-28 04:23N 34°37' E 135°25'0 0.0
2015-Apr-28 03:23N 34°37' E 135°25'0 0.0
2015-Apr-28 02:29N 34°37' E 135°25'0 0.0
2015-Apr-28 01:24N 34°37' E 135°25'6 7.3
2015-Apr-28 00:33N 34°34' E 135°18'1817.8
2015-Apr-27 23:33N 34°21' E 135°03'1716.7
2015-Apr-27 22:33N 34°05' E 134°59'23014.4
2015-Apr-27 06:33N 34°58' E 139°30'1818.0
2015-Apr-27 05:33N 35°10' E 139°46'1313.2
2015-Apr-27 04:33N 35°23' E 139°42'1312.9
2015-Apr-27 03:33N 35°35' E 139°48'3 3.3
2015-Apr-27 02:33N 35°38' E 139°46'0 0.0
2015-Apr-27 01:33N 35°38' E 139°46'0 0.0
2015-Apr-27 00:27N 35°38' E 139°46'0 0.0
2015-Apr-26 23:33N 35°38' E 139°46'0 0.0
2015-Apr-26 22:33N 35°38' E 139°46'2 2.5
2015-Apr-26 21:33N 35°36' E 139°47'1111.0
2015-Apr-26 20:34N 35°25' E 139°47'1111.0
2015-Apr-26 19:33N 35°14' E 139°47'1818.0
2015-Apr-26 18:33N 34°56' E 139°42'1515.4
2015-Apr-26 17:33N 34°54' E 140°01'1918.6
2015-Apr-26 16:31N 35°04' E 140°21'1918.2
2015-Apr-26 15:30N 35°15' E 140°38'1818.0
2015-Apr-26 14:29N 35°29' E 140°53'1819.3
2015-Apr-26 13:33N 35°46' E 141°02'2020.4
2015-Apr-26 12:33N 36°06' E 141°05'2120.0
2015-Apr-26 11:30N 36°27' E 141°09'  

Dump ship's entire track history